• Join FlightAware (Why Join?)
  • Login
  • US Flag 
03:37PM EDT


 

Airport Tracker/Info


-or-


 

Live Flight TrackerFlight Track Log ✈ QLK101D ✈ 17-Sep-2013 ✈ YCFS - YSSY / SYD

Flight Track Log - Related Links

Times and Time Zones

All times are in EDT time to prevent confusion due to time zone crossing. See the QLK101D flight status page for this flight to view local times or setup timezone preferences in your user account.

Time Position Orientation Groundspeed Altitude Reporting Facility
EDT Latitude Longitude Course Direction KTS MPH feet Rate Location/Type
04:37PM -30.4699 153.0007 215° Southwest 219 252 6,100  Level Aus ATC (RADAR)
04:38PM -30.5244 152.9556 215° Southwest 223 257 8,500 1,980 Climbing Aus ATC (RADAR)
04:39PM -30.5819 152.9085 215° Southwest 236 272 10,400 1,800 Climbing Aus ATC (RADAR)
04:40PM -30.6388 152.8626 215° Southwest 249 287 12,300 1,500 Climbing Aus ATC (RADAR)
04:41PM -30.6974 152.8132 216° Southwest 264 304 13,500 1,260 Climbing Aus ATC (RADAR)
04:42PM -30.7651 152.7586 215° Southwest 275 316 15,000 1,200 Climbing Aus ATC (RADAR)
04:43PM -30.8283 152.7069 215° Southwest 280 322 16,100 1,080 Climbing Aus ATC (RADAR)
04:44PM -30.9036 152.6445 215° Southwest 289 333 17,400 1,080 Climbing Aus ATC (RADAR)
04:46PM -31.0175 152.5504 215° Southwest 288 331 19,400 1,080 Climbing Aus ATC (RADAR)
04:46PM -31.0449 152.5274 216° Southwest 291 335 19,800 1,080 Climbing Aus ATC (RADAR)
04:47PM -31.1103 152.4737 215° Southwest 290 334 21,000 960 Climbing Aus ATC (RADAR)
04:48PM -31.1864 152.4102 215° Southwest 290 334 21,900 360 Climbing Aus ATC (RADAR)
04:49PM -31.2628 152.3465 215° Southwest 318 366 21,900  Level Aus ATC (RADAR)
04:51PM -31.3446 152.2793 215° Southwest 337 388 21,900  Level Aus ATC (RADAR)
04:52PM -31.4282 152.2092 216° Southwest 343 395 21,900  Level Aus ATC (RADAR)
04:53PM -31.5129 152.1395 215° Southwest 346 398 21,900 60 Level Aus ATC (RADAR)
04:54PM -31.5988 152.0665 216° Southwest 333 383 22,100 720 Climbing Aus ATC (RADAR)
04:55PM -31.6764 152.0018 215° Southwest 303 349 23,600 780 Climbing Aus ATC (RADAR)
04:56PM -31.7520 151.9432 213° Southwest 314 361 23,800 120 Climbing Aus ATC (RADAR)
04:57PM -31.8455 151.9015 201° Southwest 333 383 23,900 -120 Climbing Aus ATC (RADAR)
04:59PM -32.0185 151.8144 203° Southwest 328 377 23,600 -180 Descending Aus ATC (RADAR)
04:59PM -32.0372 151.8061 200° South 328 377 23,600  Level Aus ATC (RADAR)
05:01PM -32.1504 151.7493 203° Southwest 322 371 23,600  Level Aus ATC (RADAR)
05:01PM -32.2103 151.7201 202° Southwest 323 372 23,600  Level Aus ATC (RADAR)
05:02PM -32.2401 151.7046 204° Southwest 320 368 23,600 60 Level Aus ATC (RADAR)
05:02PM -32.2883 151.6797 204° Southwest 321 369 23,700  Climbing Aus ATC (RADAR)
05:03PM -32.3483 151.6506 202° Southwest 324 373 23,600 -60 Descending Aus ATC (RADAR)
05:04PM -32.4494 151.5993 203° Southwest 330 380 23,600  Level Aus ATC (RADAR)
05:05PM -32.4973 151.5758 202° Southwest 336 387 23,600  Level Aus ATC (RADAR)
05:05PM -32.5484 151.5498 203° Southwest 341 392 23,600  Level Aus ATC (RADAR)
05:06PM -32.5954 151.5262 203° Southwest 343 395 23,600  Level Aus ATC (RADAR)
05:06PM -32.6402 151.5040 203° Southwest 347 399 23,600  Level Aus ATC (RADAR)
05:07PM -32.6925 151.4777 203° Southwest 347 399 23,600  Level Aus ATC (RADAR)
05:08PM -32.7453 151.4505 203° Southwest 352 405 23,600 -660 Level Aus ATC (RADAR)
05:08PM -32.7902 151.4270 204° Southwest 352 405 22,900 -1,740 Descending Aus ATC (RADAR)
05:09PM -32.8997 151.3725 203° Southwest 347 399 20,700 -1,860 Descending Aus ATC (RADAR)
05:10PM -32.9501 151.3463 204° Southwest 338 389 19,600 -1,800 Descending Aus ATC (RADAR)
05:10PM -32.9954 151.3234 203° Southwest 333 383 18,700 -1,800 Descending Aus ATC (RADAR)
05:11PM -33.0384 151.3027 202° Southwest 333 383 17,800 -1,800 Descending Aus ATC (RADAR)
05:11PM -33.0860 151.2783 203° Southwest 340 391 16,900 -1,800 Descending Aus ATC (RADAR)
05:12PM -33.1362 151.2522 203° Southwest 336 387 15,800 -1,860 Descending Aus ATC (RADAR)
05:13PM -33.1832 151.2293 202° Southwest 338 389 14,800 -1,860 Descending Aus ATC (RADAR)
05:13PM -33.2367 151.2178 190° South 333 383 13,700 -1,740 Descending Aus ATC (RADAR)
05:14PM -33.3451 151.2158 181° South 334 384 11,800 -1,560 Descending Aus ATC (RADAR)
05:15PM -33.4289 151.2102 183° South 302 348 10,500 -1,440 Descending Aus ATC (RADAR)
05:16PM -33.4840 151.2066 183° South 292 336 9,500 -1,620 Descending Aus ATC (RADAR)
05:16PM -33.5318 151.2033 183° South 288 331 8,500 -1,620 Descending Aus ATC (RADAR)
05:17PM -33.5801 151.2007 183° South 278 320 7,600 -1,200 Descending Aus ATC (RADAR)
05:18PM -33.6313 151.1983 182° South 250 288 6,900 -840 Descending Aus ATC (RADAR)
05:18PM -33.6614 151.1985 180° South 255 293 6,700 -480 Descending Aus ATC (RADAR)
05:20PM -33.7735 151.2365 164° South 273 314 6,000 -360 Descending Aus ATC (RADAR)
05:20PM -33.8025 151.2502 159° South 270 311 6,100 60 Climbing Aus ATC (RADAR)
05:21PM -33.8372 151.2665 159° South 268 308 6,100 -120 Level Aus ATC (RADAR)
05:21PM -33.8864 151.2870 161° South 258 297 6,000  Descending Aus ATC (RADAR)
05:22PM -33.9241 151.3017 162° South 264 304 6,100  Climbing Aus ATC (RADAR)
05:23PM -33.9680 151.3191 162° South 258 297 6,000 -120 Descending Aus ATC (RADAR)
05:23PM -34.0173 151.3377 163° South 263 303 6,000 -1,020 Level Aus ATC (RADAR)
05:25PM -34.1024 151.3453 176° South 216 249 3,900 -1,440 Descending Aus ATC (RADAR)
05:25PM -34.1120 151.3168 248° West 199 229 3,400 -900 Descending Aus ATC (RADAR)
05:26PM -34.1219 151.2830 251° West 194 223 3,000 -720 Descending Aus ATC (RADAR)
05:26PM -34.0981 151.2463 308° West 197 227 2,500 -840 Descending Aus ATC (RADAR)
05:27PM -34.0749 151.2247 322° Northwest 194 223 2,000 -840 Descending Aus ATC (RADAR)
05:27PM -34.0503 151.2148 342° North 168 193 1,600 -720 Descending Aus ATC (RADAR)
05:28PM -34.0276 151.2083 346° North 134 154 1,200 -480 Descending Aus ATC (RADAR)
05:31PM -33.9568 151.1881 347° North 36 41 100 -420 Descending Aus ATC (RADAR)